createdAt,value
2018-05-21T00:00:47.834Z,15.90
2018-05-21T00:03:15.577Z,15.82
2018-05-21T00:05:43.100Z,15.89
2018-05-21T00:08:10.618Z,15.88
2018-05-21T00:10:38.363Z,15.87
2018-05-21T00:13:06.977Z,15.87
2018-05-21T00:15:34.486Z,15.81
2018-05-21T00:18:01.986Z,15.77
2018-05-21T00:20:29.579Z,15.73
2018-05-21T00:22:57.169Z,15.72
2018-05-21T00:25:24.667Z,15.92
2018-05-21T00:27:52.219Z,16.02
2018-05-21T00:30:19.767Z,15.98
2018-05-21T00:32:47.311Z,16.02
2018-05-21T00:35:14.925Z,15.98
2018-05-21T00:37:42.509Z,15.94
2018-05-21T00:40:10.070Z,15.88
2018-05-21T00:42:39.698Z,15.82
2018-05-21T00:45:07.665Z,15.78
2018-05-21T00:47:36.034Z,15.82
2018-05-21T00:50:03.726Z,15.82
2018-05-21T00:52:31.266Z,15.81
2018-05-21T00:55:10.682Z,15.75
2018-05-21T00:57:38.207Z,15.76
2018-05-21T01:00:05.754Z,15.61
2018-05-21T01:02:33.365Z,15.64
2018-05-21T01:05:00.958Z,15.58
2018-05-21T01:07:28.465Z,15.62
2018-05-21T01:09:55.973Z,15.55
2018-05-21T01:12:23.695Z,15.46
2018-05-21T01:14:51.260Z,15.43
2018-05-21T01:17:18.831Z,15.37
2018-05-21T01:19:46.395Z,15.27
2018-05-21T01:22:14.965Z,15.17
2018-05-21T01:24:42.517Z,15.00
2018-05-21T01:27:10.084Z,14.93
2018-05-21T01:29:37.578Z,14.82
2018-05-21T01:32:05.153Z,14.68
2018-05-21T01:34:32.694Z,14.67
2018-05-21T01:37:00.230Z,14.59
2018-05-21T01:39:27.740Z,14.54
2018-05-21T01:41:55.253Z,14.59
2018-05-21T01:44:22.781Z,14.59
2018-05-21T01:46:50.300Z,14.52
2018-05-21T01:49:17.813Z,14.49
2018-05-21T01:51:45.317Z,14.42
2018-05-21T01:54:12.925Z,14.41
2018-05-21T01:56:40.462Z,14.37
2018-05-21T01:59:07.994Z,14.38
2018-05-21T02:01:35.535Z,14.35
2018-05-21T02:04:03.080Z,14.29
2018-05-21T02:06:30.627Z,14.25
2018-05-21T02:08:58.148Z,14.23
2018-05-21T02:11:25.651Z,14.16
2018-05-21T02:13:53.199Z,14.08
2018-05-21T02:16:20.720Z,14.03
2018-05-21T02:18:48.228Z,13.98
2018-05-21T02:21:15.839Z,13.89
2018-05-21T02:23:43.388Z,13.82
2018-05-21T02:26:11.606Z,13.72
2018-05-21T02:28:39.154Z,13.64
2018-05-21T02:31:06.719Z,13.65
2018-05-21T02:33:34.369Z,13.64
2018-05-21T02:36:02.028Z,13.63
2018-05-21T02:38:29.560Z,13.59
2018-05-21T02:40:57.080Z,13.52
2018-05-21T02:43:24.577Z,13.57
2018-05-21T02:45:52.178Z,13.52
2018-05-21T02:48:19.706Z,13.49
2018-05-21T02:50:47.218Z,13.46
2018-05-21T02:53:14.719Z,13.47
2018-05-21T02:55:42.237Z,13.50
2018-05-21T02:58:09.794Z,13.46
2018-05-21T03:00:37.398Z,13.42
2018-05-21T03:03:05.402Z,13.44
2018-05-21T03:05:32.927Z,13.36
2018-05-21T03:08:00.477Z,13.41
2018-05-21T03:10:28.020Z,13.48
2018-05-21T03:12:55.530Z,13.42
2018-05-21T03:15:23.067Z,13.43
2018-05-21T03:17:50.608Z,13.45
2018-05-21T03:20:18.137Z,13.49
2018-05-21T03:22:45.786Z,13.70
2018-05-21T03:25:13.330Z,13.69
2018-05-21T03:27:41.560Z,13.78
2018-05-21T03:30:10.100Z,13.73
2018-05-21T03:32:37.862Z,13.66
2018-05-21T03:35:05.413Z,13.62
2018-05-21T03:37:32.926Z,13.54
2018-05-21T03:40:00.526Z,13.52
2018-05-21T03:42:28.218Z,13.53
2018-05-21T03:44:56.260Z,13.53
2018-05-21T03:47:23.779Z,13.48
2018-05-21T03:49:51.298Z,13.46
2018-05-21T03:52:18.801Z,13.42
2018-05-21T03:54:46.366Z,13.43
2018-05-21T03:57:13.955Z,13.52
2018-05-21T03:59:53.469Z,13.46
2018-05-21T04:02:33.008Z,13.47
2018-05-21T04:05:00.544Z,13.47
2018-05-21T04:07:28.259Z,13.46
2018-05-21T04:09:55.766Z,13.51
2018-05-21T04:12:23.753Z,13.54
2018-05-21T04:14:51.457Z,13.48
2018-05-21T04:17:19.316Z,13.60
2018-05-21T04:19:46.975Z,13.61
2018-05-21T04:22:14.518Z,13.61
2018-05-21T04:24:42.064Z,13.62
2018-05-21T04:27:09.592Z,13.63
2018-05-21T04:29:37.103Z,13.76
2018-05-21T04:32:04.729Z,13.83
2018-05-21T04:34:32.249Z,13.89
2018-05-21T04:37:00.720Z,13.98
2018-05-21T04:39:28.269Z,13.97
2018-05-21T04:41:55.837Z,14.06
2018-05-21T04:44:23.388Z,14.09
2018-05-21T04:46:50.918Z,14.29
2018-05-21T04:49:18.933Z,14.39
2018-05-21T04:51:46.562Z,14.43
2018-05-21T04:54:14.086Z,14.47
2018-05-21T04:56:41.963Z,14.54
2018-05-21T04:59:09.507Z,14.64
2018-05-21T05:01:37.047Z,14.70
2018-05-21T05:04:04.667Z,14.77
2018-05-21T05:06:32.267Z,14.90
2018-05-21T05:08:59.796Z,15.08
2018-05-21T05:11:27.465Z,15.14
2018-05-21T05:13:55.019Z,15.31
2018-05-21T05:16:22.742Z,15.43
2018-05-21T05:18:50.269Z,15.58
2018-05-21T05:21:17.810Z,15.83
2018-05-21T05:23:45.345Z,15.91
2018-05-21T05:26:12.868Z,16.04
2018-05-21T05:28:40.514Z,16.28
2018-05-21T05:31:08.040Z,16.41
2018-05-21T05:33:35.592Z,16.54
2018-05-21T05:36:03.148Z,16.62
2018-05-21T05:38:30.676Z,16.65
2018-05-21T05:40:58.228Z,16.81
2018-05-21T05:43:25.923Z,16.92
2018-05-21T05:45:53.474Z,16.93
2018-05-21T05:48:21.084Z,17.20
2018-05-21T05:50:48.676Z,17.22
2018-05-21T05:53:16.927Z,17.29
2018-05-21T05:55:44.476Z,17.30
2018-05-21T05:58:13.166Z,17.38
2018-05-21T06:00:40.894Z,17.53
2018-05-21T06:03:08.436Z,17.59
2018-05-21T06:05:36.139Z,17.56
2018-05-21T06:08:03.679Z,17.40
2018-05-21T06:10:31.229Z,17.56
2018-05-21T06:12:58.755Z,17.67
2018-05-21T06:15:26.306Z,17.72
2018-05-21T06:17:53.840Z,17.81
2018-05-21T06:20:21.510Z,17.90
2018-05-21T06:22:49.075Z,18.00
2018-05-21T06:25:16.673Z,18.01
2018-05-21T06:27:45.313Z,18.34
2018-05-21T06:30:14.258Z,18.65
2018-05-21T06:32:41.785Z,19.00
2018-05-21T06:35:09.422Z,19.05
2018-05-21T06:37:36.970Z,19.13
2018-05-21T06:40:04.520Z,19.53
2018-05-21T06:42:32.968Z,19.78
2018-05-21T06:45:00.502Z,19.78
2018-05-21T06:47:28.138Z,19.70
2018-05-21T06:49:55.682Z,19.71
2018-05-21T06:52:23.271Z,19.70
2018-05-21T06:54:50.841Z,19.54
2018-05-21T06:57:18.463Z,19.70
2018-05-21T06:59:46.111Z,19.71
2018-05-21T07:02:13.604Z,19.77
2018-05-21T07:04:41.351Z,20.01
2018-05-21T07:07:08.925Z,19.84
2018-05-21T07:09:36.478Z,19.89
2018-05-21T07:12:04.118Z,19.95
2018-05-21T07:14:32.844Z,20.21
2018-05-21T07:17:00.505Z,20.45
2018-05-21T07:19:28.186Z,20.90
2018-05-21T07:21:55.857Z,21.06
2018-05-21T07:24:23.432Z,21.24
2018-05-21T07:26:51.030Z,21.01
2018-05-21T07:29:18.679Z,21.02
2018-05-21T07:31:46.232Z,21.12
2018-05-21T07:34:13.792Z,21.27
2018-05-21T07:36:41.365Z,21.54
2018-05-21T07:39:08.888Z,21.53
2018-05-21T07:41:36.544Z,21.86
2018-05-21T07:44:04.115Z,21.99
2018-05-21T07:46:31.663Z,22.19
2018-05-21T07:48:59.201Z,22.30
2018-05-21T07:51:27.576Z,22.38
2018-05-21T07:53:55.192Z,22.53
2018-05-21T07:56:22.749Z,22.46
2018-05-21T07:58:50.521Z,22.40
2018-05-21T08:01:18.053Z,22.45
2018-05-21T08:03:45.587Z,22.55
2018-05-21T08:06:13.174Z,22.26
2018-05-21T08:08:40.681Z,22.23
2018-05-21T08:11:08.291Z,21.99
2018-05-21T08:13:35.957Z,22.04
2018-05-21T08:16:03.521Z,22.35
2018-05-21T08:18:31.132Z,22.30
2018-05-21T08:20:58.641Z,22.23
2018-05-21T08:23:26.164Z,22.19
2018-05-21T08:25:54.402Z,21.99
2018-05-21T08:28:21.920Z,21.97
2018-05-21T08:30:49.474Z,21.88
2018-05-21T08:33:17.010Z,22.17
2018-05-21T08:35:44.592Z,22.12
2018-05-21T08:38:12.187Z,22.49
2018-05-21T08:40:39.749Z,22.62
2018-05-21T08:43:07.394Z,22.81
2018-05-21T08:45:34.932Z,22.93
2018-05-21T08:48:04.451Z,23.20
2018-05-21T08:50:32.110Z,23.32
2018-05-21T08:52:59.709Z,23.45
2018-05-21T08:55:28.335Z,23.66
2018-05-21T08:57:55.988Z,23.92
2018-05-21T09:00:23.638Z,23.86
2018-05-21T09:02:51.264Z,23.80
2018-05-21T09:05:18.860Z,23.65
2018-05-21T09:07:46.405Z,23.37
2018-05-21T09:10:13.923Z,23.42
2018-05-21T09:12:41.490Z,23.29
2018-05-21T09:15:09.089Z,23.26
2018-05-21T09:17:36.685Z,23.38
2018-05-21T09:20:04.352Z,23.00
2018-05-21T09:22:31.986Z,23.21
2018-05-21T09:24:59.469Z,23.29
2018-05-21T09:27:27.029Z,23.32
2018-05-21T09:29:54.612Z,23.35
2018-05-21T09:32:22.199Z,23.36
2018-05-21T09:34:50.189Z,23.38
2018-05-21T09:37:17.750Z,23.31
2018-05-21T09:39:45.373Z,23.34
2018-05-21T09:42:12.945Z,23.10
2018-05-21T09:44:40.543Z,23.18
2018-05-21T09:47:08.215Z,23.31
2018-05-21T09:49:35.745Z,23.42
2018-05-21T09:52:03.343Z,23.64
2018-05-21T09:54:30.882Z,23.71
2018-05-21T09:56:58.391Z,23.41
2018-05-21T09:59:25.919Z,23.57
2018-05-21T10:01:53.523Z,23.67
2018-05-21T10:04:21.089Z,23.90
2018-05-21T10:06:48.644Z,23.70
2018-05-21T10:09:16.189Z,23.62
2018-05-21T10:11:43.718Z,23.79
2018-05-21T10:14:11.231Z,24.05
2018-05-21T10:16:38.807Z,24.17
2018-05-21T10:19:06.365Z,24.21
2018-05-21T10:21:33.923Z,24.38
2018-05-21T10:24:01.483Z,24.45
2018-05-21T10:26:29.041Z,24.39
2018-05-21T10:28:56.615Z,24.40
2018-05-21T10:31:24.188Z,24.51
2018-05-21T10:33:52.092Z,24.56
2018-05-21T10:36:19.688Z,24.85
2018-05-21T10:38:47.218Z,24.93
2018-05-21T10:41:15.108Z,24.70
2018-05-21T10:43:42.782Z,24.24
2018-05-21T10:46:10.437Z,24.35
2018-05-21T10:48:38.037Z,24.50
2018-05-21T10:51:05.612Z,24.27
2018-05-21T10:53:33.223Z,24.52
2018-05-21T10:56:00.766Z,24.64
2018-05-21T10:58:29.600Z,24.53
2018-05-21T11:00:57.150Z,24.72
2018-05-21T11:03:25.009Z,24.34
2018-05-21T11:05:52.678Z,24.53
2018-05-21T11:08:20.416Z,24.78
2018-05-21T11:10:47.985Z,25.11
2018-05-21T11:13:15.593Z,25.36
2018-05-21T11:15:43.168Z,25.51
2018-05-21T11:18:10.701Z,25.45
2018-05-21T11:20:38.292Z,25.21
2018-05-21T11:23:05.839Z,25.39
2018-05-21T11:25:33.420Z,25.57
2018-05-21T11:28:00.926Z,25.91
2018-05-21T11:30:28.450Z,26.25
2018-05-21T11:32:56.076Z,26.55
2018-05-21T11:35:23.592Z,26.81
2018-05-21T11:37:51.182Z,26.53
2018-05-21T11:40:18.726Z,26.86
2018-05-21T11:42:46.343Z,26.59
2018-05-21T11:45:13.965Z,26.52
2018-05-21T11:47:41.588Z,27.18
2018-05-21T11:50:09.142Z,27.60
2018-05-21T11:52:36.821Z,28.29
2018-05-21T11:55:04.321Z,28.89
2018-05-21T11:57:31.838Z,29.03
2018-05-21T11:59:59.403Z,29.28
2018-05-21T12:02:26.927Z,29.99
2018-05-21T12:04:54.521Z,30.63
2018-05-21T12:07:22.111Z,31.31
2018-05-21T12:09:49.664Z,31.99
2018-05-21T12:12:17.224Z,32.34
2018-05-21T12:14:44.782Z,33.64
2018-05-21T12:17:12.420Z,35.34
2018-05-21T12:19:39.979Z,36.17
2018-05-21T12:22:07.548Z,37.55
2018-05-21T12:24:35.115Z,37.58
2018-05-21T12:27:02.646Z,38.03
2018-05-21T12:29:30.255Z,37.46
2018-05-21T12:31:57.815Z,38.71
2018-05-21T12:34:25.376Z,38.66
2018-05-21T12:36:52.952Z,38.39
2018-05-21T12:39:20.521Z,39.41
2018-05-21T12:41:48.147Z,39.13
2018-05-21T12:44:15.684Z,40.34
2018-05-21T12:46:43.226Z,41.20
2018-05-21T12:49:10.767Z,40.75
2018-05-21T12:51:38.350Z,39.69
2018-05-21T12:54:05.989Z,40.20
2018-05-21T12:56:33.520Z,40.80
2018-05-21T12:59:01.059Z,40.06
2018-05-21T13:01:28.603Z,40.65
2018-05-21T13:03:56.134Z,40.13
2018-05-21T13:06:23.661Z,40.66
2018-05-21T13:08:51.221Z,40.94
2018-05-21T13:11:18.753Z,42.26
2018-05-21T13:13:46.328Z,43.66
2018-05-21T13:16:13.900Z,44.03
2018-05-21T13:18:41.429Z,44.02
2018-05-21T13:21:08.968Z,44.35
2018-05-21T13:23:36.521Z,44.14
2018-05-21T13:26:04.074Z,43.37
2018-05-21T13:28:31.705Z,42.60
2018-05-21T13:30:59.260Z,42.17
2018-05-21T13:33:26.809Z,40.78
2018-05-21T13:35:54.375Z,39.51
2018-05-21T13:38:22.000Z,40.04
2018-05-21T13:40:49.582Z,40.14
2018-05-21T13:43:17.271Z,40.67
2018-05-21T13:45:44.729Z,40.50
2018-05-21T13:48:12.291Z,41.29
2018-05-21T13:50:39.854Z,40.31
2018-05-21T13:53:07.414Z,36.58
2018-05-21T13:55:34.932Z,39.32
2018-05-21T13:58:02.523Z,41.94
2018-05-21T14:00:30.075Z,43.46
2018-05-21T14:02:57.624Z,43.90
2018-05-21T14:05:25.181Z,44.34
2018-05-21T14:07:52.976Z,45.05
2018-05-21T14:10:20.495Z,45.64
2018-05-21T14:12:48.159Z,46.29
2018-05-21T14:15:15.665Z,45.05
2018-05-21T14:17:43.250Z,46.38
2018-05-21T14:20:10.799Z,46.89
2018-05-21T14:22:38.335Z,46.47
2018-05-21T14:25:05.970Z,46.77
2018-05-21T14:27:33.534Z,46.26
2018-05-21T14:30:01.094Z,46.12
2018-05-21T14:32:28.648Z,44.91
2018-05-21T14:34:56.192Z,42.55
2018-05-21T14:37:23.783Z,40.80
2018-05-21T14:39:51.348Z,39.13
2018-05-21T14:42:18.917Z,37.69
2018-05-21T14:44:47.364Z,37.09
2018-05-21T14:47:14.892Z,37.28
2018-05-21T14:49:42.548Z,38.14
2018-05-21T14:52:10.093Z,39.73
2018-05-21T14:54:37.684Z,40.62
2018-05-21T14:57:05.341Z,39.92
2018-05-21T14:59:33.008Z,39.55
2018-05-21T15:02:00.688Z,40.42
2018-05-21T15:04:28.275Z,41.67
2018-05-21T15:06:56.032Z,42.26
2018-05-21T15:09:23.530Z,40.94
2018-05-21T15:11:51.190Z,38.60
2018-05-21T15:14:18.728Z,37.71
2018-05-21T15:16:46.261Z,38.94
2018-05-21T15:19:13.877Z,39.71
2018-05-21T15:21:41.430Z,39.62
2018-05-21T15:24:08.932Z,40.28
2018-05-21T15:26:36.528Z,40.49
2018-05-21T15:29:04.212Z,39.82
2018-05-21T15:31:31.916Z,39.11
2018-05-21T15:33:59.541Z,38.61
2018-05-21T15:36:27.175Z,36.95
2018-05-21T15:38:54.835Z,35.36
2018-05-21T15:41:22.480Z,33.80
2018-05-21T15:43:50.057Z,32.20
2018-05-21T15:46:17.849Z,30.88
2018-05-21T15:51:42.453Z,28.59
2018-05-21T15:54:10.012Z,28.14
2018-05-21T15:56:37.787Z,27.73
2018-05-21T15:59:05.331Z,27.69
2018-05-21T16:01:32.906Z,27.52
2018-05-21T16:04:00.581Z,27.46
2018-05-21T16:06:28.331Z,27.33
2018-05-21T16:08:55.992Z,27.27
2018-05-21T16:11:23.533Z,27.36
2018-05-21T16:13:51.077Z,27.63
2018-05-21T16:16:18.624Z,27.74
2018-05-21T16:18:47.117Z,28.47
2018-05-21T16:21:14.654Z,29.12
2018-05-21T16:23:42.156Z,29.51
2018-05-21T16:26:09.759Z,29.37
2018-05-21T16:28:37.281Z,29.06
2018-05-21T16:31:04.851Z,28.91
2018-05-21T16:33:32.395Z,28.92
2018-05-21T16:35:59.966Z,28.97
2018-05-21T16:38:27.557Z,29.08
2018-05-21T16:40:55.095Z,29.20
2018-05-21T16:43:22.647Z,29.19
2018-05-21T16:45:50.187Z,29.11
2018-05-21T16:48:18.149Z,29.15
2018-05-21T16:50:45.714Z,28.75
2018-05-21T16:53:13.235Z,29.12
2018-05-21T16:55:40.786Z,29.53
2018-05-21T16:58:09.446Z,30.17
2018-05-21T17:00:37.202Z,30.73
2018-05-21T17:03:04.751Z,31.55
2018-05-21T17:05:32.322Z,32.07
2018-05-21T17:07:59.865Z,32.52
2018-05-21T17:10:27.383Z,32.89
2018-05-21T17:12:54.917Z,33.24
2018-05-21T17:15:22.465Z,33.77
2018-05-21T17:17:50.037Z,34.34
2018-05-21T17:20:17.610Z,34.23
2018-05-21T17:22:45.237Z,34.54
2018-05-21T17:25:12.811Z,34.59
2018-05-21T17:27:40.414Z,34.76
2018-05-21T17:30:08.019Z,35.09
2018-05-21T17:32:35.652Z,35.19
2018-05-21T17:35:03.188Z,34.64
2018-05-21T17:37:30.753Z,34.70
2018-05-21T17:39:58.269Z,34.43
2018-05-21T17:42:26.007Z,34.36
2018-05-21T17:44:54.380Z,33.10
2018-05-21T17:47:22.384Z,33.93
2018-05-21T17:49:49.939Z,33.78
2018-05-21T17:52:17.459Z,32.28
2018-05-21T17:54:45.013Z,31.74
2018-05-21T17:57:12.772Z,30.76
2018-05-21T17:59:40.796Z,29.59
2018-05-21T18:02:08.343Z,29.20
2018-05-21T18:04:35.889Z,27.81
2018-05-21T18:07:03.414Z,27.19
2018-05-21T18:09:30.991Z,26.94
2018-05-21T18:11:58.538Z,26.74
2018-05-21T18:14:26.138Z,26.73
2018-05-21T18:16:53.676Z,26.51
2018-05-21T18:19:21.218Z,26.31
2018-05-21T18:21:48.773Z,26.02
2018-05-21T18:24:16.330Z,25.95
2018-05-21T18:26:43.874Z,25.69
2018-05-21T18:29:11.544Z,25.49
2018-05-21T18:31:39.088Z,25.51
2018-05-21T18:34:06.632Z,25.34
2018-05-21T18:36:34.232Z,25.20
2018-05-21T18:39:01.782Z,24.88
2018-05-21T18:41:29.326Z,24.65
2018-05-21T18:43:56.886Z,24.35
2018-05-21T18:46:24.416Z,24.34
2018-05-21T18:48:52.312Z,24.23
2018-05-21T18:51:20.116Z,24.28
2018-05-21T18:53:47.782Z,24.23
2018-05-21T18:56:15.295Z,23.85
2018-05-21T18:58:43.186Z,23.65
2018-05-21T19:01:10.757Z,23.14
2018-05-21T19:03:38.288Z,22.89
2018-05-21T19:06:06.132Z,22.89
2018-05-21T19:08:33.674Z,22.72
2018-05-21T19:11:01.219Z,22.49
2018-05-21T19:13:28.891Z,21.78
2018-05-21T19:15:56.452Z,22.06
2018-05-21T19:18:24.030Z,22.19
2018-05-21T19:20:51.579Z,22.35
2018-05-21T19:23:19.101Z,22.36
2018-05-21T19:25:46.668Z,21.79
2018-05-21T19:28:15.583Z,21.61
2018-05-21T19:30:43.167Z,21.42
2018-05-21T19:33:10.704Z,21.03
2018-05-21T19:35:38.292Z,20.57
2018-05-21T19:38:05.840Z,20.68
2018-05-21T19:40:33.455Z,20.70
2018-05-21T19:43:01.028Z,20.62
2018-05-21T19:45:29.292Z,20.48
2018-05-21T19:47:56.833Z,20.35
2018-05-21T19:50:24.541Z,20.12
2018-05-21T19:52:52.265Z,19.92
2018-05-21T19:55:20.159Z,19.73
2018-05-21T19:57:47.763Z,19.59
2018-05-21T20:00:15.882Z,19.57
2018-05-21T20:02:43.440Z,19.55
2018-05-21T20:05:11.065Z,19.45
2018-05-21T20:07:38.556Z,19.28
2018-05-21T20:10:07.030Z,19.26
2018-05-21T20:12:34.642Z,19.38
2018-05-21T20:15:02.213Z,19.16
2018-05-21T20:17:29.769Z,19.18
2018-05-21T20:19:57.375Z,19.24
2018-05-21T20:22:24.943Z,19.08
2018-05-21T20:24:52.500Z,19.14
2018-05-21T20:27:20.081Z,19.12
2018-05-21T20:29:47.733Z,19.33
2018-05-21T20:32:15.336Z,19.39
2018-05-21T20:34:42.865Z,19.48
2018-05-21T20:37:10.537Z,19.30
2018-05-21T20:39:38.199Z,19.35
2018-05-21T20:42:05.759Z,19.45
2018-05-21T20:44:33.321Z,19.22
2018-05-21T20:47:02.410Z,19.15
2018-05-21T20:49:31.953Z,19.14
2018-05-21T20:52:00.741Z,18.84
2018-05-21T20:54:28.461Z,18.68
2018-05-21T20:56:56.156Z,18.66
2018-05-21T20:59:23.770Z,18.64
2018-05-21T21:01:51.329Z,18.65
2018-05-21T21:04:18.920Z,18.65
2018-05-21T21:06:46.429Z,18.82
2018-05-21T21:09:14.521Z,19.00
2018-05-21T21:11:42.922Z,19.31
2018-05-21T21:14:10.670Z,19.72
2018-05-21T21:16:38.312Z,20.21
2018-05-21T21:19:06.033Z,20.59
2018-05-21T21:21:33.675Z,20.77
2018-05-21T21:24:01.258Z,20.49
2018-05-21T21:26:29.795Z,20.53
2018-05-21T21:28:57.469Z,20.76
2018-05-21T21:31:25.228Z,20.90
2018-05-21T21:33:52.816Z,21.04
2018-05-21T21:36:20.364Z,21.07
2018-05-21T21:38:48.563Z,21.10
2018-05-21T21:41:16.351Z,21.13
2018-05-21T21:43:45.135Z,20.84
2018-05-21T21:46:13.464Z,21.09
2018-05-21T21:48:41.056Z,21.15
2018-05-21T21:51:08.723Z,21.18
2018-05-21T21:53:36.425Z,21.03
2018-05-21T21:56:04.621Z,20.85
2018-05-21T21:58:32.275Z,20.88
2018-05-21T22:01:00.449Z,20.91
2018-05-21T22:03:28.117Z,21.04
2018-05-21T22:05:55.779Z,21.13
2018-05-21T22:08:23.350Z,21.23
2018-05-21T22:10:51.029Z,21.13
2018-05-21T22:13:18.749Z,21.18
2018-05-21T22:15:47.457Z,21.04
2018-05-21T22:18:15.064Z,20.95
2018-05-21T22:20:42.865Z,20.56
2018-05-21T22:23:10.524Z,20.81
2018-05-21T22:25:38.182Z,21.02
2018-05-21T22:28:06.171Z,21.10
2018-05-21T22:30:33.882Z,21.15
2018-05-21T22:33:01.599Z,21.20
2018-05-21T22:35:29.373Z,21.16
2018-05-21T22:37:57.309Z,21.00
2018-05-21T22:40:24.849Z,21.11
2018-05-21T22:42:52.729Z,21.15
2018-05-21T22:45:20.396Z,21.33
2018-05-21T22:47:47.956Z,21.01
2018-05-21T22:50:15.590Z,21.15
2018-05-21T22:52:43.484Z,21.15
2018-05-21T22:55:11.029Z,20.97
2018-05-21T22:57:38.649Z,21.22
2018-05-21T23:00:06.162Z,21.24
2018-05-21T23:02:33.680Z,21.10
2018-05-21T23:05:01.286Z,21.18
2018-05-21T23:07:28.835Z,21.15
2018-05-21T23:09:56.394Z,21.01
2018-05-21T23:12:23.904Z,20.74
2018-05-21T23:14:51.562Z,20.41
2018-05-21T23:17:19.094Z,20.37
2018-05-21T23:19:46.656Z,20.36
2018-05-21T23:22:14.215Z,20.40
2018-05-21T23:24:41.828Z,20.48
2018-05-21T23:27:09.380Z,20.47
2018-05-21T23:29:36.910Z,20.44
2018-05-21T23:32:04.594Z,20.27
2018-05-21T23:34:32.208Z,19.96
2018-05-21T23:36:59.749Z,19.08
2018-05-21T23:39:27.328Z,19.15
2018-05-21T23:41:54.926Z,19.39
2018-05-21T23:44:22.547Z,19.73
2018-05-21T23:46:50.123Z,19.99
2018-05-21T23:49:17.655Z,20.15
2018-05-21T23:51:45.166Z,19.99
2018-05-21T23:54:12.818Z,19.89
2018-05-21T23:56:40.379Z,19.50
2018-05-21T23:59:07.947Z,19.46
